sensor_id;sensor_type;location;lat;lon;timestamp;temperature;humidity
22456;DHT22;11395;53.204;6.502;2023-07-30T00:02:23;24.40;87.60
22456;DHT22;11395;53.204;6.502;2023-07-30T00:04:49;24.40;87.50
22456;DHT22;11395;53.204;6.502;2023-07-30T00:07:16;24.40;87.90
22456;DHT22;11395;53.204;6.502;2023-07-30T00:09:42;24.40;87.60
22456;DHT22;11395;53.204;6.502;2023-07-30T00:12:08;24.40;87.80
22456;DHT22;11395;53.204;6.502;2023-07-30T00:14:35;24.40;88.00
22456;DHT22;11395;53.204;6.502;2023-07-30T00:17:02;24.40;88.30
22456;DHT22;11395;53.204;6.502;2023-07-30T00:19:28;24.40;88.10
22456;DHT22;11395;53.204;6.502;2023-07-30T00:21:54;24.40;87.90
22456;DHT22;11395;53.204;6.502;2023-07-30T00:24:20;24.40;87.80
22456;DHT22;11395;53.204;6.502;2023-07-30T00:26:46;24.40;87.70
22456;DHT22;11395;53.204;6.502;2023-07-30T00:29:12;24.40;87.40
22456;DHT22;11395;53.204;6.502;2023-07-30T00:31:39;24.30;87.50
22456;DHT22;11395;53.204;6.502;2023-07-30T00:34:05;24.30;87.60
22456;DHT22;11395;53.204;6.502;2023-07-30T00:36:31;24.30;87.40
22456;DHT22;11395;53.204;6.502;2023-07-30T00:38:57;24.30;87.80
22456;DHT22;11395;53.204;6.502;2023-07-30T00:41:23;24.20;87.70
22456;DHT22;11395;53.204;6.502;2023-07-30T00:43:49;24.30;87.90
22456;DHT22;11395;53.204;6.502;2023-07-30T00:46:16;24.20;87.90
22456;DHT22;11395;53.204;6.502;2023-07-30T00:48:43;24.20;88.70
22456;DHT22;11395;53.204;6.502;2023-07-30T00:51:11;24.20;89.20
22456;DHT22;11395;53.204;6.502;2023-07-30T00:53:39;24.20;89.10
22456;DHT22;11395;53.204;6.502;2023-07-30T00:56:05;24.20;88.20
22456;DHT22;11395;53.204;6.502;2023-07-30T00:58:33;24.20;88.30
22456;DHT22;11395;53.204;6.502;2023-07-30T01:00:59;24.20;89.00
22456;DHT22;11395;53.204;6.502;2023-07-30T01:03:26;24.20;88.00
22456;DHT22;11395;53.204;6.502;2023-07-30T01:05:52;24.20;88.20
22456;DHT22;11395;53.204;6.502;2023-07-30T01:08:19;24.20;88.10
22456;DHT22;11395;53.204;6.502;2023-07-30T01:10:46;24.20;88.30
22456;DHT22;11395;53.204;6.502;2023-07-30T01:13:12;24.20;88.10
22456;DHT22;11395;53.204;6.502;2023-07-30T01:15:40;24.20;88.20
22456;DHT22;11395;53.204;6.502;2023-07-30T01:18:06;24.20;88.70
22456;DHT22;11395;53.204;6.502;2023-07-30T01:20:33;24.20;88.20
22456;DHT22;11395;53.204;6.502;2023-07-30T01:22:59;24.10;88.30
22456;DHT22;11395;53.204;6.502;2023-07-30T01:25:28;24.10;88.30
22456;DHT22;11395;53.204;6.502;2023-07-30T01:27:59;24.10;89.40
22456;DHT22;11395;53.204;6.502;2023-07-30T01:30:30;24.10;89.60
22456;DHT22;11395;53.204;6.502;2023-07-30T01:32:58;24.10;89.50
22456;DHT22;11395;53.204;6.502;2023-07-30T01:35:28;24.10;88.50
22456;DHT22;11395;53.204;6.502;2023-07-30T01:37:55;24.10;89.90
22456;DHT22;11395;53.204;6.502;2023-07-30T01:40:21;24.10;88.90
22456;DHT22;11395;53.204;6.502;2023-07-30T01:42:49;24.00;88.50
22456;DHT22;11395;53.204;6.502;2023-07-30T01:45:17;24.00;89.30
22456;DHT22;11395;53.204;6.502;2023-07-30T01:47:43;24.10;88.80
22456;DHT22;11395;53.204;6.502;2023-07-30T01:50:09;24.00;88.80
22456;DHT22;11395;53.204;6.502;2023-07-30T01:52:36;24.00;88.20
22456;DHT22;11395;53.204;6.502;2023-07-30T01:55:02;24.00;88.20
22456;DHT22;11395;53.204;6.502;2023-07-30T01:57:29;24.00;88.20
22456;DHT22;11395;53.204;6.502;2023-07-30T01:59:55;24.00;88.00
22456;DHT22;11395;53.204;6.502;2023-07-30T02:02:21;24.00;88.40
22456;DHT22;11395;53.204;6.502;2023-07-30T02:04:47;24.00;88.30
22456;DHT22;11395;53.204;6.502;2023-07-30T02:07:13;24.40;88.70
22456;DHT22;11395;53.204;6.502;2023-07-30T02:09:40;24.10;88.40
22456;DHT22;11395;53.204;6.502;2023-07-30T02:12:06;24.00;88.40
22456;DHT22;11395;53.204;6.502;2023-07-30T02:14:33;24.00;89.00
22456;DHT22;11395;53.204;6.502;2023-07-30T02:17:00;23.90;88.00
22456;DHT22;11395;53.204;6.502;2023-07-30T02:19:27;23.90;88.00
22456;DHT22;11395;53.204;6.502;2023-07-30T02:21:53;23.90;88.40
22456;DHT22;11395;53.204;6.502;2023-07-30T02:24:19;23.90;88.10
22456;DHT22;11395;53.204;6.502;2023-07-30T02:26:45;23.90;88.60
22456;DHT22;11395;53.204;6.502;2023-07-30T02:29:11;24.00;88.50
22456;DHT22;11395;53.204;6.502;2023-07-30T02:31:37;24.00;88.60
22456;DHT22;11395;53.204;6.502;2023-07-30T02:34:04;24.20;88.40
22456;DHT22;11395;53.204;6.502;2023-07-30T02:36:30;23.90;88.50
22456;DHT22;11395;53.204;6.502;2023-07-30T02:38:56;23.90;88.90
22456;DHT22;11395;53.204;6.502;2023-07-30T02:41:22;24.00;88.60
22456;DHT22;11395;53.204;6.502;2023-07-30T02:43:48;23.90;88.50
22456;DHT22;11395;53.204;6.502;2023-07-30T02:46:14;23.90;88.50
22456;DHT22;11395;53.204;6.502;2023-07-30T02:48:40;23.80;88.40
22456;DHT22;11395;53.204;6.502;2023-07-30T02:51:07;23.80;88.20
22456;DHT22;11395;53.204;6.502;2023-07-30T02:53:33;23.90;88.30
22456;DHT22;11395;53.204;6.502;2023-07-30T02:55:59;23.90;88.70
22456;DHT22;11395;53.204;6.502;2023-07-30T02:58:25;23.80;88.30
22456;DHT22;11395;53.204;6.502;2023-07-30T03:00:51;23.80;88.90
22456;DHT22;11395;53.204;6.502;2023-07-30T03:03:17;23.80;88.50
22456;DHT22;11395;53.204;6.502;2023-07-30T03:05:44;23.80;88.60
22456;DHT22;11395;53.204;6.502;2023-07-30T03:08:10;23.80;88.60
22456;DHT22;11395;53.204;6.502;2023-07-30T03:10:37;23.80;89.10
22456;DHT22;11395;53.204;6.502;2023-07-30T03:13:03;23.80;89.00
22456;DHT22;11395;53.204;6.502;2023-07-30T03:15:29;23.80;89.10
22456;DHT22;11395;53.204;6.502;2023-07-30T03:17:55;23.80;88.80
22456;DHT22;11395;53.204;6.502;2023-07-30T03:20:21;23.80;88.40
22456;DHT22;11395;53.204;6.502;2023-07-30T03:22:48;23.80;88.60
22456;DHT22;11395;53.204;6.502;2023-07-30T03:25:14;23.80;88.50
22456;DHT22;11395;53.204;6.502;2023-07-30T03:27:40;23.80;88.60
22456;DHT22;11395;53.204;6.502;2023-07-30T03:30:06;23.80;88.40
22456;DHT22;11395;53.204;6.502;2023-07-30T03:32:33;23.70;88.50
22456;DHT22;11395;53.204;6.502;2023-07-30T03:34:59;23.80;88.30
22456;DHT22;11395;53.204;6.502;2023-07-30T03:37:25;23.70;88.30
22456;DHT22;11395;53.204;6.502;2023-07-30T03:39:53;23.70;88.90
22456;DHT22;11395;53.204;6.502;2023-07-30T03:42:20;23.70;88.60
22456;DHT22;11395;53.204;6.502;2023-07-30T03:44:47;23.70;89.20
22456;DHT22;11395;53.204;6.502;2023-07-30T03:47:13;23.70;88.80
22456;DHT22;11395;53.204;6.502;2023-07-30T03:49:40;23.70;88.80
22456;DHT22;11395;53.204;6.502;2023-07-30T03:52:06;23.70;88.80
22456;DHT22;11395;53.204;6.502;2023-07-30T03:54:33;23.70;89.00
22456;DHT22;11395;53.204;6.502;2023-07-30T03:56:59;23.70;89.20
22456;DHT22;11395;53.204;6.502;2023-07-30T03:59:26;23.60;89.00
22456;DHT22;11395;53.204;6.502;2023-07-30T04:01:54;23.70;89.10
22456;DHT22;11395;53.204;6.502;2023-07-30T04:04:20;23.60;88.90
22456;DHT22;11395;53.204;6.502;2023-07-30T04:06:46;23.60;89.10
22456;DHT22;11395;53.204;6.502;2023-07-30T04:09:13;23.60;89.10
22456;DHT22;11395;53.204;6.502;2023-07-30T04:11:39;23.70;88.90
22456;DHT22;11395;53.204;6.502;2023-07-30T04:14:05;23.60;88.60
22456;DHT22;11395;53.204;6.502;2023-07-30T04:16:33;23.60;88.90
22456;DHT22;11395;53.204;6.502;2023-07-30T04:19:00;23.60;88.80
22456;DHT22;11395;53.204;6.502;2023-07-30T04:21:26;23.70;88.30
22456;DHT22;11395;53.204;6.502;2023-07-30T04:23:52;23.70;88.80
22456;DHT22;11395;53.204;6.502;2023-07-30T04:26:18;23.60;88.80
22456;DHT22;11395;53.204;6.502;2023-07-30T04:28:44;23.60;88.60
22456;DHT22;11395;53.204;6.502;2023-07-30T04:31:10;23.60;88.40
22456;DHT22;11395;53.204;6.502;2023-07-30T04:33:37;23.60;88.40
22456;DHT22;11395;53.204;6.502;2023-07-30T04:36:03;23.70;88.70
22456;DHT22;11395;53.204;6.502;2023-07-30T04:38:30;23.70;88.70
22456;DHT22;11395;53.204;6.502;2023-07-30T04:40:58;23.70;88.70
22456;DHT22;11395;53.204;6.502;2023-07-30T04:43:25;23.70;89.00
22456;DHT22;11395;53.204;6.502;2023-07-30T04:45:55;23.60;88.30
22456;DHT22;11395;53.204;6.502;2023-07-30T04:48:21;23.70;88.40
22456;DHT22;11395;53.204;6.502;2023-07-30T04:50:48;23.70;88.10
22456;DHT22;11395;53.204;6.502;2023-07-30T04:53:14;23.70;87.90
22456;DHT22;11395;53.204;6.502;2023-07-30T04:55:40;23.80;88.10
22456;DHT22;11395;53.204;6.502;2023-07-30T04:58:06;23.90;88.00
22456;DHT22;11395;53.204;6.502;2023-07-30T05:00:32;24.00;87.80
22456;DHT22;11395;53.204;6.502;2023-07-30T05:02:59;24.10;87.10
22456;DHT22;11395;53.204;6.502;2023-07-30T05:05:25;24.20;86.90
22456;DHT22;11395;53.204;6.502;2023-07-30T05:07:51;24.30;86.70
22456;DHT22;11395;53.204;6.502;2023-07-30T05:10:17;24.50;86.50
22456;DHT22;11395;53.204;6.502;2023-07-30T05:12:44;24.60;86.30
22456;DHT22;11395;53.204;6.502;2023-07-30T05:15:10;24.60;86.50
22456;DHT22;11395;53.204;6.502;2023-07-30T05:17:36;24.70;86.00
22456;DHT22;11395;53.204;6.502;2023-07-30T05:20:02;24.80;85.70
22456;DHT22;11395;53.204;6.502;2023-07-30T05:22:29;24.90;85.20
22456;DHT22;11395;53.204;6.502;2023-07-30T05:24:55;24.90;84.80
22456;DHT22;11395;53.204;6.502;2023-07-30T05:27:21;25.00;85.10
22456;DHT22;11395;53.204;6.502;2023-07-30T05:29:47;25.00;85.20
22456;DHT22;11395;53.204;6.502;2023-07-30T05:32:14;25.10;84.50
22456;DHT22;11395;53.204;6.502;2023-07-30T05:34:40;25.10;84.90
22456;DHT22;11395;53.204;6.502;2023-07-30T05:37:06;25.20;84.00
22456;DHT22;11395;53.204;6.502;2023-07-30T05:39:32;25.20;84.10
22456;DHT22;11395;53.204;6.502;2023-07-30T05:41:59;25.30;84.10
22456;DHT22;11395;53.204;6.502;2023-07-30T05:44:25;25.30;84.20
22456;DHT22;11395;53.204;6.502;2023-07-30T05:46:51;25.30;84.00
22456;DHT22;11395;53.204;6.502;2023-07-30T05:49:17;25.30;83.90
22456;DHT22;11395;53.204;6.502;2023-07-30T05:51:43;25.40;83.80
22456;DHT22;11395;53.204;6.502;2023-07-30T05:54:09;25.40;84.00
22456;DHT22;11395;53.204;6.502;2023-07-30T05:56:35;25.30;83.80
22456;DHT22;11395;53.204;6.502;2023-07-30T05:59:02;25.40;83.80
22456;DHT22;11395;53.204;6.502;2023-07-30T06:01:28;25.40;83.60
22456;DHT22;11395;53.204;6.502;2023-07-30T06:03:54;25.40;83.60
22456;DHT22;11395;53.204;6.502;2023-07-30T06:06:20;25.40;83.50
22456;DHT22;11395;53.204;6.502;2023-07-30T06:08:53;25.40;83.40
22456;DHT22;11395;53.204;6.502;2023-07-30T06:11:20;25.40;84.00
22456;DHT22;11395;53.204;6.502;2023-07-30T06:13:46;25.40;83.70
22456;DHT22;11395;53.204;6.502;2023-07-30T06:16:13;25.40;83.60
22456;DHT22;11395;53.204;6.502;2023-07-30T06:18:40;25.40;84.00
22456;DHT22;11395;53.204;6.502;2023-07-30T06:21:06;25.50;83.80
22456;DHT22;11395;53.204;6.502;2023-07-30T06:23:32;25.40;83.50
22456;DHT22;11395;53.204;6.502;2023-07-30T06:25:58;25.40;83.50
22456;DHT22;11395;53.204;6.502;2023-07-30T06:28:24;25.40;83.30
22456;DHT22;11395;53.204;6.502;2023-07-30T06:30:51;25.40;83.50
22456;DHT22;11395;53.204;6.502;2023-07-30T06:33:17;25.40;84.40
22456;DHT22;11395;53.204;6.502;2023-07-30T06:35:43;25.40;83.20
22456;DHT22;11395;53.204;6.502;2023-07-30T06:38:09;25.40;83.30
22456;DHT22;11395;53.204;6.502;2023-07-30T06:40:35;25.40;83.60
22456;DHT22;11395;53.204;6.502;2023-07-30T06:43:01;25.40;83.50
22456;DHT22;11395;53.204;6.502;2023-07-30T06:45:28;25.40;83.30
22456;DHT22;11395;53.204;6.502;2023-07-30T06:47:54;25.40;83.80
22456;DHT22;11395;53.204;6.502;2023-07-30T06:50:20;25.60;83.30
22456;DHT22;11395;53.204;6.502;2023-07-30T06:52:46;25.30;82.90
22456;DHT22;11395;53.204;6.502;2023-07-30T06:55:13;25.40;82.70
22456;DHT22;11395;53.204;6.502;2023-07-30T06:57:39;25.40;82.70
22456;DHT22;11395;53.204;6.502;2023-07-30T07:00:05;25.50;82.90
22456;DHT22;11395;53.204;6.502;2023-07-30T07:02:32;25.50;83.70
22456;DHT22;11395;53.204;6.502;2023-07-30T07:04:58;25.70;82.60
22456;DHT22;11395;53.204;6.502;2023-07-30T07:07:25;25.70;81.90
22456;DHT22;11395;53.204;6.502;2023-07-30T07:09:51;25.80;82.30
22456;DHT22;11395;53.204;6.502;2023-07-30T07:12:17;25.80;81.70
22456;DHT22;11395;53.204;6.502;2023-07-30T07:14:43;25.90;82.00
22456;DHT22;11395;53.204;6.502;2023-07-30T07:17:09;25.90;82.10
22456;DHT22;11395;53.204;6.502;2023-07-30T07:19:35;25.90;82.30
22456;DHT22;11395;53.204;6.502;2023-07-30T07:22:04;26.00;81.70
22456;DHT22;11395;53.204;6.502;2023-07-30T07:24:30;26.10;82.50
22456;DHT22;11395;53.204;6.502;2023-07-30T07:26:57;26.30;81.80
22456;DHT22;11395;53.204;6.502;2023-07-30T07:29:23;26.40;81.60
22456;DHT22;11395;53.204;6.502;2023-07-30T07:31:49;26.60;80.10
22456;DHT22;11395;53.204;6.502;2023-07-30T07:34:15;26.70;79.90
22456;DHT22;11395;53.204;6.502;2023-07-30T07:36:41;26.90;80.10
22456;DHT22;11395;53.204;6.502;2023-07-30T07:39:08;27.10;79.40
22456;DHT22;11395;53.204;6.502;2023-07-30T07:41:34;27.30;78.40
22456;DHT22;11395;53.204;6.502;2023-07-30T07:44:00;27.50;77.90
22456;DHT22;11395;53.204;6.502;2023-07-30T07:46:26;27.70;77.00
22456;DHT22;11395;53.204;6.502;2023-07-30T07:48:53;27.80;76.70
22456;DHT22;11395;53.204;6.502;2023-07-30T07:51:19;27.90;76.30
22456;DHT22;11395;53.204;6.502;2023-07-30T07:53:45;27.90;76.40
22456;DHT22;11395;53.204;6.502;2023-07-30T07:56:12;27.80;76.40
22456;DHT22;11395;53.204;6.502;2023-07-30T07:58:38;27.60;76.40
22456;DHT22;11395;53.204;6.502;2023-07-30T08:01:04;27.50;76.70
22456;DHT22;11395;53.204;6.502;2023-07-30T08:03:31;27.40;77.30
22456;DHT22;11395;53.204;6.502;2023-07-30T08:05:57;27.30;77.90
22456;DHT22;11395;53.204;6.502;2023-07-30T08:08:25;27.20;78.40
22456;DHT22;11395;53.204;6.502;2023-07-30T08:10:51;27.10;78.70
22456;DHT22;11395;53.204;6.502;2023-07-30T08:13:17;27.00;78.70
22456;DHT22;11395;53.204;6.502;2023-07-30T08:15:44;26.90;78.40
22456;DHT22;11395;53.204;6.502;2023-07-30T08:18:10;26.80;78.80
22456;DHT22;11395;53.204;6.502;2023-07-30T08:20:36;26.80;78.90
22456;DHT22;11395;53.204;6.502;2023-07-30T08:23:03;26.70;79.10
22456;DHT22;11395;53.204;6.502;2023-07-30T08:25:29;26.70;79.30
22456;DHT22;11395;53.204;6.502;2023-07-30T08:27:55;26.70;79.40
22456;DHT22;11395;53.204;6.502;2023-07-30T08:30:21;26.60;79.00
22456;DHT22;11395;53.204;6.502;2023-07-30T08:32:47;26.60;78.80
22456;DHT22;11395;53.204;6.502;2023-07-30T08:35:13;26.60;79.50
22456;DHT22;11395;53.204;6.502;2023-07-30T08:37:39;26.60;79.80
22456;DHT22;11395;53.204;6.502;2023-07-30T08:40:06;26.50;79.70
22456;DHT22;11395;53.204;6.502;2023-07-30T08:42:33;26.50;79.40
22456;DHT22;11395;53.204;6.502;2023-07-30T08:44:59;26.40;80.30
22456;DHT22;11395;53.204;6.502;2023-07-30T08:47:25;26.40;80.20
22456;DHT22;11395;53.204;6.502;2023-07-30T08:49:51;26.40;80.20
22456;DHT22;11395;53.204;6.502;2023-07-30T08:52:19;26.40;79.80
22456;DHT22;11395;53.204;6.502;2023-07-30T08:54:48;26.30;81.00
22456;DHT22;11395;53.204;6.502;2023-07-30T08:57:16;26.40;80.90
22456;DHT22;11395;53.204;6.502;2023-07-30T08:59:50;26.60;80.40
22456;DHT22;11395;53.204;6.502;2023-07-30T09:02:26;26.90;79.40
22456;DHT22;11395;53.204;6.502;2023-07-30T09:04:58;27.30;79.50
22456;DHT22;11395;53.204;6.502;2023-07-30T09:07:25;27.30;78.90
22456;DHT22;11395;53.204;6.502;2023-07-30T09:09:52;27.20;77.60
22456;DHT22;11395;53.204;6.502;2023-07-30T09:12:18;27.00;78.20
22456;DHT22;11395;53.204;6.502;2023-07-30T09:14:46;26.90;78.20
22456;DHT22;11395;53.204;6.502;2023-07-30T09:17:20;26.80;78.60
22456;DHT22;11395;53.204;6.502;2023-07-30T09:19:46;26.70;80.40
22456;DHT22;11395;53.204;6.502;2023-07-30T09:22:34;26.60;78.90
22456;DHT22;11395;53.204;6.502;2023-07-30T09:25:05;26.50;81.40
22456;DHT22;11395;53.204;6.502;2023-07-30T09:27:32;26.40;79.80
22456;DHT22;11395;53.204;6.502;2023-07-30T09:30:00;26.30;80.50
22456;DHT22;11395;53.204;6.502;2023-07-30T09:32:28;26.40;80.60
22456;DHT22;11395;53.204;6.502;2023-07-30T09:34:55;26.40;80.60
22456;DHT22;11395;53.204;6.502;2023-07-30T09:37:21;26.30;80.20
22456;DHT22;11395;53.204;6.502;2023-07-30T09:39:48;26.30;79.90
22456;DHT22;11395;53.204;6.502;2023-07-30T09:42:14;26.30;80.40
22456;DHT22;11395;53.204;6.502;2023-07-30T09:44:41;26.20;80.00
22456;DHT22;11395;53.204;6.502;2023-07-30T09:47:10;26.20;80.30
22456;DHT22;11395;53.204;6.502;2023-07-30T09:49:37;26.20;81.50
22456;DHT22;11395;53.204;6.502;2023-07-30T09:52:05;26.20;80.80
22456;DHT22;11395;53.204;6.502;2023-07-30T09:54:32;26.20;80.70
22456;DHT22;11395;53.204;6.502;2023-07-30T09:56:59;26.20;80.40
22456;DHT22;11395;53.204;6.502;2023-07-30T09:59:25;26.20;80.30
22456;DHT22;11395;53.204;6.502;2023-07-30T10:01:52;26.20;80.50
22456;DHT22;11395;53.204;6.502;2023-07-30T10:04:22;26.20;80.60
22456;DHT22;11395;53.204;6.502;2023-07-30T10:06:52;26.20;81.00
22456;DHT22;11395;53.204;6.502;2023-07-30T10:09:23;26.20;81.20
22456;DHT22;11395;53.204;6.502;2023-07-30T10:11:52;26.30;81.40
22456;DHT22;11395;53.204;6.502;2023-07-30T10:14:22;26.20;80.70
22456;DHT22;11395;53.204;6.502;2023-07-30T10:16:53;26.30;82.10
22456;DHT22;11395;53.204;6.502;2023-07-30T10:19:25;26.30;80.40
22456;DHT22;11395;53.204;6.502;2023-07-30T10:22:39;26.30;81.40
22456;DHT22;11395;53.204;6.502;2023-07-30T10:24:40;26.30;80.80
22456;DHT22;11395;53.204;6.502;2023-07-30T10:27:08;26.40;79.90
22456;DHT22;11395;53.204;6.502;2023-07-30T10:29:35;26.40;80.10
22456;DHT22;11395;53.204;6.502;2023-07-30T10:32:06;26.40;80.40
22456;DHT22;11395;53.204;6.502;2023-07-30T10:34:47;26.30;79.90
22456;DHT22;11395;53.204;6.502;2023-07-30T10:37:32;26.20;82.00
22456;DHT22;11395;53.204;6.502;2023-07-30T10:39:58;26.10;82.50
22456;DHT22;11395;53.204;6.502;2023-07-30T10:42:33;26.00;80.90
22456;DHT22;11395;53.204;6.502;2023-07-30T10:45:00;26.00;82.50
22456;DHT22;11395;53.204;6.502;2023-07-30T10:47:29;25.80;80.40
22456;DHT22;11395;53.204;6.502;2023-07-30T10:50:01;26.10;82.00
22456;DHT22;11395;53.204;6.502;2023-07-30T10:52:28;26.00;82.30
22456;DHT22;11395;53.204;6.502;2023-07-30T10:55:01;26.00;81.10
22456;DHT22;11395;53.204;6.502;2023-07-30T10:57:31;26.00;82.70
22456;DHT22;11395;53.204;6.502;2023-07-30T11:00:00;26.00;82.50
22456;DHT22;11395;53.204;6.502;2023-07-30T11:02:28;26.00;81.10
22456;DHT22;11395;53.204;6.502;2023-07-30T11:04:55;26.10;81.80
22456;DHT22;11395;53.204;6.502;2023-07-30T11:07:21;26.00;81.00
22456;DHT22;11395;53.204;6.502;2023-07-30T11:09:58;26.00;81.50
22456;DHT22;11395;53.204;6.502;2023-07-30T11:12:25;25.90;82.90
22456;DHT22;11395;53.204;6.502;2023-07-30T11:14:52;25.90;82.20
22456;DHT22;11395;53.204;6.502;2023-07-30T11:17:25;25.90;81.40
22456;DHT22;11395;53.204;6.502;2023-07-30T11:19:52;25.90;81.70
22456;DHT22;11395;53.204;6.502;2023-07-30T11:22:32;25.90;81.50
22456;DHT22;11395;53.204;6.502;2023-07-30T11:24:58;26.00;81.90
22456;DHT22;11395;53.204;6.502;2023-07-30T11:27:24;25.90;81.70
22456;DHT22;11395;53.204;6.502;2023-07-30T11:29:55;25.90;81.50
22456;DHT22;11395;53.204;6.502;2023-07-30T11:32:21;26.00;83.00
22456;DHT22;11395;53.204;6.502;2023-07-30T11:34:52;26.00;81.90
22456;DHT22;11395;53.204;6.502;2023-07-30T11:37:20;26.00;82.70
22456;DHT22;11395;53.204;6.502;2023-07-30T11:39:48;26.00;82.00
22456;DHT22;11395;53.204;6.502;2023-07-30T11:42:14;26.10;81.80
22456;DHT22;11395;53.204;6.502;2023-07-30T11:44:41;26.10;81.60
22456;DHT22;11395;53.204;6.502;2023-07-30T11:47:07;26.10;82.00
22456;DHT22;11395;53.204;6.502;2023-07-30T11:49:35;26.20;81.40
22456;DHT22;11395;53.204;6.502;2023-07-30T11:52:08;26.20;81.80
22456;DHT22;11395;53.204;6.502;2023-07-30T11:54:35;26.20;82.10
22456;DHT22;11395;53.204;6.502;2023-07-30T11:57:01;26.20;81.60
22456;DHT22;11395;53.204;6.502;2023-07-30T11:59:27;26.30;81.40
22456;DHT22;11395;53.204;6.502;2023-07-30T12:01:54;26.20;81.30
22456;DHT22;11395;53.204;6.502;2023-07-30T12:04:20;26.30;81.40
22456;DHT22;11395;53.204;6.502;2023-07-30T12:06:47;26.30;80.90
22456;DHT22;11395;53.204;6.502;2023-07-30T12:09:17;26.30;81.00
22456;DHT22;11395;53.204;6.502;2023-07-30T12:11:58;26.20;80.40
22456;DHT22;11395;53.204;6.502;2023-07-30T12:14:28;26.30;81.10
22456;DHT22;11395;53.204;6.502;2023-07-30T12:16:59;26.30;81.90
22456;DHT22;11395;53.204;6.502;2023-07-30T12:19:26;26.30;81.40
22456;DHT22;11395;53.204;6.502;2023-07-30T12:21:52;26.30;81.00
22456;DHT22;11395;53.204;6.502;2023-07-30T12:24:18;26.60;81.50
22456;DHT22;11395;53.204;6.502;2023-07-30T12:26:45;26.40;80.80
22456;DHT22;11395;53.204;6.502;2023-07-30T12:29:11;26.30;80.60
22456;DHT22;11395;53.204;6.502;2023-07-30T12:31:37;26.60;80.80
22456;DHT22;11395;53.204;6.502;2023-07-30T12:34:03;26.30;80.50
22456;DHT22;11395;53.204;6.502;2023-07-30T12:36:29;26.30;81.00
22456;DHT22;11395;53.204;6.502;2023-07-30T12:38:55;26.30;81.20
22456;DHT22;11395;53.204;6.502;2023-07-30T12:41:22;26.30;81.40
22456;DHT22;11395;53.204;6.502;2023-07-30T12:43:52;26.30;81.40
22456;DHT22;11395;53.204;6.502;2023-07-30T12:46:19;26.30;82.10
22456;DHT22;11395;53.204;6.502;2023-07-30T12:48:46;26.20;82.10
22456;DHT22;11395;53.204;6.502;2023-07-30T12:51:12;26.20;82.10
22456;DHT22;11395;53.204;6.502;2023-07-30T12:53:38;26.30;82.50
22456;DHT22;11395;53.204;6.502;2023-07-30T12:56:04;26.30;82.90
22456;DHT22;11395;53.204;6.502;2023-07-30T12:58:30;26.40;83.20
22456;DHT22;11395;53.204;6.502;2023-07-30T13:00:56;26.40;83.30
22456;DHT22;11395;53.204;6.502;2023-07-30T13:03:22;26.40;82.40
22456;DHT22;11395;53.204;6.502;2023-07-30T13:05:49;26.50;83.60
22456;DHT22;11395;53.204;6.502;2023-07-30T13:08:15;26.60;83.90
22456;DHT22;11395;53.204;6.502;2023-07-30T13:10:41;26.60;83.80
22456;DHT22;11395;53.204;6.502;2023-07-30T13:13:07;26.80;83.20
22456;DHT22;11395;53.204;6.502;2023-07-30T13:15:33;26.60;84.10
22456;DHT22;11395;53.204;6.502;2023-07-30T13:18:00;26.70;83.70
22456;DHT22;11395;53.204;6.502;2023-07-30T13:20:26;26.60;82.50
22456;DHT22;11395;53.204;6.502;2023-07-30T13:22:52;26.60;84.00
22456;DHT22;11395;53.204;6.502;2023-07-30T13:25:19;26.60;83.10
22456;DHT22;11395;53.204;6.502;2023-07-30T13:27:46;26.50;83.10
22456;DHT22;11395;53.204;6.502;2023-07-30T13:30:12;26.60;83.60
22456;DHT22;11395;53.204;6.502;2023-07-30T13:32:38;26.60;84.60
22456;DHT22;11395;53.204;6.502;2023-07-30T13:35:05;26.70;84.60
22456;DHT22;11395;53.204;6.502;2023-07-30T13:37:31;26.80;84.30
22456;DHT22;11395;53.204;6.502;2023-07-30T13:39:57;27.00;83.50
22456;DHT22;11395;53.204;6.502;2023-07-30T13:42:23;26.80;82.80
22456;DHT22;11395;53.204;6.502;2023-07-30T13:44:51;26.80;83.10
22456;DHT22;11395;53.204;6.502;2023-07-30T13:47:17;26.80;83.20
22456;DHT22;11395;53.204;6.502;2023-07-30T13:49:43;27.10;83.10
22456;DHT22;11395;53.204;6.502;2023-07-30T13:52:09;27.00;82.50
22456;DHT22;11395;53.204;6.502;2023-07-30T13:54:36;26.90;83.10
22456;DHT22;11395;53.204;6.502;2023-07-30T13:57:03;26.90;82.30
22456;DHT22;11395;53.204;6.502;2023-07-30T13:59:30;26.90;82.40
22456;DHT22;11395;53.204;6.502;2023-07-30T14:01:56;26.90;82.90
22456;DHT22;11395;53.204;6.502;2023-07-30T14:04:22;27.10;81.50
22456;DHT22;11395;53.204;6.502;2023-07-30T14:06:49;26.80;81.00
22456;DHT22;11395;53.204;6.502;2023-07-30T14:09:15;26.90;81.10
22456;DHT22;11395;53.204;6.502;2023-07-30T14:11:42;26.90;81.10
22456;DHT22;11395;53.204;6.502;2023-07-30T14:14:11;26.90;80.90
22456;DHT22;11395;53.204;6.502;2023-07-30T14:16:37;26.90;81.60
22456;DHT22;11395;53.204;6.502;2023-07-30T14:19:04;27.10;81.40
22456;DHT22;11395;53.204;6.502;2023-07-30T14:21:30;26.90;81.50
22456;DHT22;11395;53.204;6.502;2023-07-30T14:23:56;26.90;81.20
22456;DHT22;11395;53.204;6.502;2023-07-30T14:26:22;27.00;81.10
22456;DHT22;11395;53.204;6.502;2023-07-30T14:28:48;26.90;81.20
22456;DHT22;11395;53.204;6.502;2023-07-30T14:31:14;26.90;82.00
22456;DHT22;11395;53.204;6.502;2023-07-30T14:33:41;27.10;80.80
22456;DHT22;11395;53.204;6.502;2023-07-30T14:36:07;26.80;80.40
22456;DHT22;11395;53.204;6.502;2023-07-30T14:38:33;26.80;80.90
22456;DHT22;11395;53.204;6.502;2023-07-30T14:41:00;26.70;80.40
22456;DHT22;11395;53.204;6.502;2023-07-30T14:43:28;26.70;81.00
22456;DHT22;11395;53.204;6.502;2023-07-30T14:45:54;26.70;81.00
22456;DHT22;11395;53.204;6.502;2023-07-30T14:48:20;26.70;80.70
22456;DHT22;11395;53.204;6.502;2023-07-30T14:50:46;26.70;81.30
22456;DHT22;11395;53.204;6.502;2023-07-30T14:53:12;26.60;81.50
22456;DHT22;11395;53.204;6.502;2023-07-30T14:55:39;26.70;80.60
22456;DHT22;11395;53.204;6.502;2023-07-30T14:58:05;26.70;81.70
22456;DHT22;11395;53.204;6.502;2023-07-30T15:00:31;26.70;81.40
22456;DHT22;11395;53.204;6.502;2023-07-30T15:02:57;26.80;81.70
22456;DHT22;11395;53.204;6.502;2023-07-30T15:05:24;26.50;80.70
22456;DHT22;11395;53.204;6.502;2023-07-30T15:07:50;26.50;80.70
22456;DHT22;11395;53.204;6.502;2023-07-30T15:10:17;26.50;80.80
22456;DHT22;11395;53.204;6.502;2023-07-30T15:12:43;26.40;81.40
22456;DHT22;11395;53.204;6.502;2023-07-30T15:15:10;26.40;82.10
22456;DHT22;11395;53.204;6.502;2023-07-30T15:17:36;26.50;82.90
22456;DHT22;11395;53.204;6.502;2023-07-30T15:20:03;26.60;82.00
22456;DHT22;11395;53.204;6.502;2023-07-30T15:22:30;26.70;81.10
22456;DHT22;11395;53.204;6.502;2023-07-30T15:24:56;26.60;81.20
22456;DHT22;11395;53.204;6.502;2023-07-30T15:27:23;26.50;81.50
22456;DHT22;11395;53.204;6.502;2023-07-30T15:29:49;26.50;81.20